createdAt,value
2019-05-13T00:01:01.311Z,9.92
2019-05-13T00:06:07.067Z,9.71
2019-05-13T00:11:13.680Z,9.66
2019-05-13T00:16:19.222Z,9.57
2019-05-13T00:21:24.675Z,9.47
2019-05-13T00:26:29.948Z,9.53
2019-05-13T00:31:35.296Z,9.46
2019-05-13T00:36:40.958Z,9.43
2019-05-13T00:41:46.328Z,9.47
2019-05-13T00:46:53.709Z,9.39
2019-05-13T00:51:58.786Z,9.42
2019-05-13T00:57:04.570Z,9.33
2019-05-13T01:02:09.943Z,9.18
2019-05-13T01:07:24.824Z,9.23
2019-05-13T01:12:23.815Z,9.21
2019-05-13T01:17:29.266Z,9.23
2019-05-13T01:22:35.026Z,9.24
2019-05-13T01:27:40.588Z,9.30
2019-05-13T01:32:45.735Z,9.35
2019-05-13T01:37:53.679Z,9.30
2019-05-13T01:42:58.679Z,9.28
2019-05-13T01:48:07.220Z,9.23
2019-05-13T01:53:11.203Z,9.12
2019-05-13T01:58:16.627Z,9.12
2019-05-13T02:03:24.423Z,9.09
2019-05-13T02:08:29.297Z,9.03
2019-05-13T02:13:34.856Z,9.09
2019-05-13T02:18:40.063Z,9.09
2019-05-13T02:23:45.477Z,9.19
2019-05-13T02:28:50.643Z,9.16
2019-05-13T02:33:55.892Z,9.16
2019-05-13T02:39:02.534Z,9.11
2019-05-13T02:44:08.354Z,9.08
2019-05-13T02:49:14.553Z,9.16
2019-05-13T02:54:22.691Z,9.16
2019-05-13T02:59:26.779Z,9.10
2019-05-13T03:04:32.724Z,9.07
2019-05-13T03:09:38.055Z,9.07
2019-05-13T03:14:48.072Z,9.07
2019-05-13T03:19:52.990Z,9.05
2019-05-13T03:24:57.619Z,9.05
2019-05-13T03:30:04.607Z,8.83
2019-05-13T03:35:15.848Z,8.83
2019-05-13T03:40:17.962Z,8.98
2019-05-13T03:45:25.393Z,9.03
2019-05-13T03:50:34.384Z,8.77
2019-05-13T03:55:38.514Z,9.07
2019-05-13T04:00:45.113Z,9.07
2019-05-13T04:05:52.661Z,9.16
2019-05-13T04:10:57.938Z,9.19
2019-05-13T04:16:04.363Z,9.23
2019-05-13T04:21:13.146Z,9.28
2019-05-13T04:26:17.738Z,9.31
2019-05-13T04:31:24.172Z,9.36
2019-05-13T04:36:31.963Z,9.43
2019-05-13T04:41:37.869Z,9.47
2019-05-13T04:46:43.572Z,9.62
2019-05-13T04:51:52.337Z,9.51
2019-05-13T04:56:57.469Z,9.53
2019-05-13T05:02:42.801Z,9.58
2019-05-13T05:07:52.511Z,9.68
2019-05-13T05:13:12.931Z,9.86
2019-05-13T05:18:42.128Z,9.70
2019-05-13T05:24:23.739Z,9.74
2019-05-13T05:29:34.806Z,9.56
2019-05-13T05:34:46.034Z,9.48
2019-05-13T05:39:54.696Z,9.65
2019-05-13T05:45:02.781Z,9.62
2019-05-13T05:50:08.126Z,9.67
2019-05-13T05:55:13.844Z,9.81
2019-05-13T06:00:21.878Z,9.85
2019-05-13T06:05:28.074Z,10.08
2019-05-13T06:10:46.749Z,10.13
2019-05-13T06:15:42.071Z,9.97
2019-05-13T06:20:47.499Z,10.09
2019-05-13T06:25:52.958Z,10.26
2019-05-13T06:30:58.205Z,10.49
2019-05-13T06:36:03.892Z,10.57
2019-05-13T06:41:14.013Z,10.65
2019-05-13T06:46:16.212Z,11.03
2019-05-13T06:51:22.415Z,11.20
2019-05-13T06:56:27.776Z,11.47
2019-05-13T07:01:32.916Z,11.52
2019-05-13T07:06:38.196Z,11.59
2019-05-13T07:11:45.255Z,11.52
2019-05-13T07:16:52.402Z,11.61
2019-05-13T07:21:57.563Z,11.58
2019-05-13T07:27:02.842Z,11.88
2019-05-13T07:32:08.158Z,11.61
2019-05-13T07:37:13.519Z,11.84
2019-05-13T07:42:18.725Z,12.03
2019-05-13T07:47:24.127Z,12.07
2019-05-13T07:52:31.773Z,12.09
2019-05-13T07:57:36.357Z,12.18
2019-05-13T08:02:41.952Z,12.04
2019-05-13T08:07:47.517Z,12.15
2019-05-13T08:12:52.725Z,11.99
2019-05-13T08:17:58.125Z,12.13
2019-05-13T08:23:03.524Z,11.84
2019-05-13T08:28:12.020Z,12.17
2019-05-13T08:33:16.705Z,12.31
2019-05-13T08:38:23.089Z,12.51
2019-05-13T08:43:28.818Z,12.25
2019-05-13T08:48:34.478Z,12.56
2019-05-13T08:53:42.304Z,12.85
2019-05-13T08:58:47.093Z,12.51
2019-05-13T09:03:52.504Z,12.58
2019-05-13T09:08:59.253Z,12.63
2019-05-13T09:14:05.588Z,12.76
2019-05-13T09:19:15.727Z,13.01
2019-05-13T09:24:30.519Z,12.83
2019-05-13T09:29:25.070Z,12.81
2019-05-13T09:34:32.753Z,12.92
2019-05-13T09:39:38.305Z,12.93
2019-05-13T09:44:43.864Z,13.17
2019-05-13T09:49:49.571Z,13.17
2019-05-13T09:54:54.728Z,13.37
2019-05-13T10:00:01.767Z,13.41
2019-05-13T10:05:08.628Z,13.11
2019-05-13T10:10:14.905Z,13.07
2019-05-13T10:15:22.155Z,13.63
2019-05-13T10:20:52.858Z,13.74
2019-05-13T10:26:03.344Z,13.65
2019-05-13T10:31:11.810Z,13.42
2019-05-13T10:36:17.696Z,13.32
2019-05-13T10:41:23.148Z,13.26
2019-05-13T10:46:28.765Z,13.11
2019-05-13T10:51:34.283Z,13.32
2019-05-13T10:56:42.470Z,13.32
2019-05-13T11:01:47.012Z,13.63
2019-05-13T11:06:52.729Z,13.72
2019-05-13T11:11:58.124Z,13.58
2019-05-13T11:17:03.649Z,12.92
2019-05-13T11:22:12.028Z,12.93
2019-05-13T11:27:16.869Z,12.97
2019-05-13T11:32:22.687Z,13.35
2019-05-13T11:37:28.366Z,13.46
2019-05-13T11:42:33.814Z,13.51
2019-05-13T11:47:41.513Z,13.16
2019-05-13T11:52:46.721Z,12.53
2019-05-13T11:57:53.093Z,12.33
2019-05-13T12:02:58.680Z,12.24
2019-05-13T12:08:04.245Z,12.21
2019-05-13T12:13:11.875Z,12.91
2019-05-13T12:18:16.435Z,12.65
2019-05-13T12:23:22.022Z,12.51
2019-05-13T12:28:27.378Z,13.03
2019-05-13T12:33:32.919Z,12.72
2019-05-13T12:38:38.604Z,12.06
2019-05-13T12:43:43.963Z,11.94
2019-05-13T12:48:49.335Z,11.71
2019-05-13T12:53:54.775Z,12.05
2019-05-13T12:59:02.901Z,11.63
2019-05-13T13:04:07.446Z,11.80
2019-05-13T13:09:13.097Z,12.85
2019-05-13T13:14:18.632Z,12.56
2019-05-13T13:19:23.970Z,11.93
2019-05-13T13:24:31.820Z,12.96
2019-05-13T13:29:36.410Z,13.23
2019-05-13T13:34:44.015Z,12.02
2019-05-13T13:39:48.509Z,11.54
2019-05-13T13:44:54.261Z,11.93
2019-05-13T13:50:00.078Z,12.31
2019-05-13T13:55:08.982Z,12.45
2019-05-13T14:00:29.270Z,11.56
2019-05-13T14:05:24.841Z,11.21
2019-05-13T14:10:31.728Z,11.28
2019-05-13T14:15:36.387Z,11.71
2019-05-13T14:20:42.833Z,12.06
2019-05-13T14:25:48.456Z,11.45
2019-05-13T14:30:54.060Z,10.77
2019-05-13T14:36:01.569Z,11.45
2019-05-13T14:41:09.079Z,12.13
2019-05-13T14:46:13.743Z,11.26
2019-05-13T14:51:21.719Z,10.90
2019-05-13T14:56:26.080Z,11.02
2019-05-13T15:01:31.941Z,10.86
2019-05-13T15:06:37.486Z,11.18
2019-05-13T15:11:42.812Z,11.18
2019-05-13T15:17:02.520Z,11.47
2019-05-13T15:21:56.501Z,11.48
2019-05-13T15:27:02.479Z,11.19
2019-05-13T15:32:07.718Z,11.24
2019-05-13T15:37:13.194Z,11.42
2019-05-13T15:42:18.587Z,11.45
2019-05-13T15:47:26.757Z,11.77
2019-05-13T15:52:31.725Z,11.70
2019-05-13T15:57:37.396Z,11.40
2019-05-13T16:02:42.562Z,11.35
2019-05-13T16:07:47.707Z,11.29
2019-05-13T16:12:53.252Z,11.19
2019-05-13T16:17:58.517Z,11.22
2019-05-13T16:23:03.878Z,11.14
2019-05-13T16:28:09.048Z,11.29
2019-05-13T16:33:14.746Z,11.07
2019-05-13T16:38:21.963Z,11.11
2019-05-13T16:43:27.572Z,10.96
2019-05-13T16:48:32.948Z,10.75
2019-05-13T16:53:38.485Z,10.71
2019-05-13T16:58:43.998Z,10.61
2019-05-13T17:03:51.257Z,10.48
2019-05-13T17:08:56.266Z,10.42
2019-05-13T17:14:03.089Z,10.40
2019-05-13T17:19:08.517Z,10.41
2019-05-13T17:24:13.917Z,10.43
2019-05-13T17:29:21.132Z,10.20
2019-05-13T17:34:26.595Z,10.30
2019-05-13T17:39:32.310Z,10.44
2019-05-13T17:44:37.862Z,10.48
2019-05-13T17:49:43.178Z,10.35
2019-05-13T17:54:48.652Z,10.13
2019-05-13T17:59:54.211Z,10.09
2019-05-13T18:05:01.802Z,10.21
2019-05-13T18:10:31.856Z,10.20
2019-05-13T18:15:45.066Z,10.07
2019-05-13T18:20:52.077Z,10.07
2019-05-13T18:31:12.250Z,10.04
2019-05-13T18:36:17.644Z,9.99
2019-05-13T18:41:22.969Z,9.75
2019-05-13T18:46:28.405Z,9.77
2019-05-13T18:51:33.713Z,9.66
2019-05-13T18:56:41.399Z,9.66
2019-05-13T19:01:46.140Z,9.41
2019-05-13T19:06:51.742Z,9.33
2019-05-13T19:11:57.457Z,9.33
2019-05-13T19:17:02.741Z,9.38
2019-05-13T19:22:08.394Z,9.40
2019-05-13T19:27:13.580Z,9.24
2019-05-13T19:32:18.871Z,8.92
2019-05-13T19:37:24.175Z,8.93
2019-05-13T19:42:31.361Z,8.98
2019-05-13T19:47:37.123Z,9.00
2019-05-13T19:52:43.457Z,9.14
2019-05-13T19:57:51.663Z,9.08
2019-05-13T20:02:57.135Z,9.12
2019-05-13T20:08:03.879Z,9.00
2019-05-13T20:13:11.107Z,8.94
2019-05-13T20:18:16.027Z,8.91
2019-05-13T20:23:21.485Z,8.79
2019-05-13T20:28:27.150Z,8.78
2019-05-13T20:33:35.942Z,8.65
2019-05-13T20:38:39.875Z,8.52
2019-05-13T20:43:45.096Z,8.50
2019-05-13T20:48:51.959Z,8.41
2019-05-13T20:53:57.609Z,8.34
2019-05-13T20:59:03.094Z,8.36
2019-05-13T21:04:08.861Z,8.41
2019-05-13T21:09:16.929Z,8.55
2019-05-13T21:14:21.686Z,8.55
2019-05-13T21:19:28.566Z,8.64
2019-05-13T21:24:34.100Z,8.76
2019-05-13T21:29:41.377Z,8.83
2019-05-13T21:34:46.563Z,8.94
2019-05-13T21:39:52.002Z,8.92
2019-05-13T21:44:57.199Z,8.82
2019-05-13T21:50:02.410Z,8.73
2019-05-13T21:55:07.898Z,8.61
2019-05-13T22:00:16.889Z,8.71
2019-05-13T22:05:23.916Z,8.65
2019-05-13T22:10:31.065Z,8.78
2019-05-13T22:15:36.685Z,8.85
2019-05-13T22:20:49.691Z,8.85
2019-05-13T22:25:51.453Z,8.87
2019-05-13T22:30:56.667Z,8.83
2019-05-13T22:36:02.520Z,8.71
2019-05-13T22:41:07.770Z,8.71
2019-05-13T22:46:14.192Z,8.82
2019-05-13T22:51:21.376Z,8.86
2019-05-13T22:56:27.099Z,8.90
2019-05-13T23:01:32.452Z,8.73
2019-05-13T23:06:38.263Z,8.79
2019-05-13T23:11:44.453Z,8.87
2019-05-13T23:16:49.716Z,8.82
2019-05-13T23:21:54.942Z,9.02
2019-05-13T23:27:02.130Z,8.93
2019-05-13T23:32:07.134Z,8.94
2019-05-13T23:37:13.194Z,8.96
2019-05-13T23:42:18.469Z,9.06
2019-05-13T23:47:23.801Z,8.97
2019-05-13T23:52:31.213Z,8.83
2019-05-13T23:57:36.665Z,8.68
